Time,TemperatureF,DewpointF,PressureIn,WindDirection,WindDirectionDegrees,WindSpeedMPH,WindSpeedGustMPH,Humidity,HourlyPrecipIn,Conditions,Clouds,dailyrainin,SoftwareType,DateUTC
2013-07-11 00:02:00,76.0,74.0,29.83,NE,55,0.0,0.0,95,0.00,,,0.00,,2013-07-11 05:02:00,
2013-07-11 00:12:00,77.0,76.0,29.82,NE,55,0.0,0.0,96,0.00,,,0.00,,2013-07-11 05:12:00,
2013-07-11 00:22:00,76.0,75.0,29.82,NE,55,0.0,0.0,96,0.00,,,0.00,,2013-07-11 05:22:00,
2013-07-11 00:32:00,76.0,75.0,29.82,NE,55,0.0,0.0,96,0.00,,,0.00,,2013-07-11 05:32:00,
2013-07-11 00:43:00,76.0,75.0,29.82,NE,55,0.0,0.0,96,0.00,,,0.00,,2013-07-11 05:43:00,
2013-07-11 00:52:00,77.0,76.0,29.82,NE,55,0.0,0.0,97,0.00,,,0.00,,2013-07-11 05:52:00,
2013-07-11 01:01:00,77.0,76.0,29.82,NE,55,0.0,0.0,97,0.00,,,0.00,,2013-07-11 06:01:00,
2013-07-11 01:12:00,77.0,76.0,29.82,NE,34,0.0,0.0,97,0.00,,,0.00,,2013-07-11 06:12:00,
2013-07-11 01:22:00,76.0,75.0,29.82,NE,34,0.0,0.0,98,0.00,,,0.00,,2013-07-11 06:22:00,
2013-07-11 01:32:00,76.0,75.0,29.82,NE,34,0.0,0.0,98,0.00,,,0.00,,2013-07-11 06:32:00,
2013-07-11 01:43:00,77.0,77.0,29.81,NE,34,0.0,0.0,99,0.00,,,0.00,,2013-07-11 06:43:00,
2013-07-11 08:53:00,82.0,79.0,29.84,NE,41,2.0,6.0,91,0.00,,,0.00,,2013-07-11 13:53:00,
2013-07-11 09:04:00,82.0,79.0,29.84,NE,41,2.0,6.0,91,0.00,,,0.00,,2013-07-11 14:04:00,
2013-07-11 09:15:00,83.0,79.0,29.84,ENE,68,7.0,8.0,88,0.00,,,0.00,,2013-07-11 14:15:00,
2013-07-11 09:23:00,83.0,78.0,29.85,East,86,6.0,10.0,85,0.00,,,0.00,,2013-07-11 14:23:00,
2013-07-11 09:35:00,83.0,78.0,29.85,East,86,6.0,10.0,85,0.00,,,0.00,,2013-07-11 14:35:00,
2013-07-11 09:45:00,84.0,79.0,29.85,ENE,61,1.0,10.0,86,0.00,,,0.00,,2013-07-11 14:45:00,
2013-07-11 09:54:00,84.0,79.0,29.85,NE,45,2.0,10.0,85,0.00,,,0.00,,2013-07-11 14:54:00,
2013-07-11 10:04:00,84.0,79.0,29.85,NE,45,2.0,10.0,85,0.00,,,0.00,,2013-07-11 15:04:00,
2013-07-11 10:13:00,84.0,77.0,29.84,ENE,65,2.0,12.0,80,0.00,,,0.00,,2013-07-11 15:13:00,
2013-07-11 10:24:00,84.0,78.0,29.85,NE,55,2.0,10.0,83,0.00,,,0.00,,2013-07-11 15:24:00,
2013-07-11 10:37:00,84.0,78.0,29.85,NE,55,2.0,10.0,83,0.00,,,0.00,,2013-07-11 15:37:00,
2013-07-11 10:55:00,85.0,78.0,29.85,NE,35,4.0,10.0,79,0.00,,,0.00,,2013-07-11 15:55:00,
2013-07-11 11:05:00,85.0,78.0,29.85,NE,35,4.0,10.0,79,0.00,,,0.00,,2013-07-11 16:05:00,
2013-07-11 11:14:00,84.0,75.0,29.86,East,88,6.0,10.0,75,0.00,,,0.00,,2013-07-11 16:14:00,
2013-07-11 11:24:00,85.0,74.0,29.86,NE,42,5.0,11.0,70,0.00,,,0.00,,2013-07-11 16:24:00,
2013-07-11 11:35:00,85.0,74.0,29.86,NE,42,5.0,11.0,70,0.00,,,0.00,,2013-07-11 16:35:00,
2013-07-11 11:54:00,85.0,74.0,29.86,ENE,69,2.0,11.0,70,0.00,,,0.00,,2013-07-11 16:54:00,
2013-07-11 12:02:00,85.0,74.0,29.86,ENE,69,2.0,11.0,70,0.00,,,0.00,,2013-07-11 17:02:00,
2013-07-11 12:26:00,84.0,72.0,29.86,NE,54,0.0,12.0,67,0.00,,,0.00,,2013-07-11 17:26:00,
2013-07-11 12:38:00,84.0,72.0,29.86,NE,54,0.0,12.0,67,0.00,,,0.00,,2013-07-11 17:38:00,
2013-07-11 12:45:00,85.0,72.0,29.86,NE,48,3.0,12.0,66,0.00,,,0.00,,2013-07-11 17:45:00,
2013-07-11 12:52:00,84.0,73.0,29.86,East,97,1.0,12.0,69,0.00,,,0.00,,2013-07-11 17:52:00,
2013-07-11 13:05:00,84.0,73.0,29.86,East,97,1.0,12.0,69,0.00,,,0.00,,2013-07-11 18:05:00,
2013-07-11 13:14:00,84.0,74.0,29.86,NNE,16,6.0,12.0,72,0.00,,,0.00,,2013-07-11 18:14:00,
2013-07-11 13:24:00,83.0,73.0,29.85,NNE,30,1.0,12.0,72,0.00,,,0.00,,2013-07-11 18:24:00,
2013-07-11 13:35:00,83.0,73.0,29.85,NNE,30,1.0,12.0,72,0.00,,,0.00,,2013-07-11 18:35:00,
2013-07-11 13:45:00,83.0,74.0,29.85,ENE,62,5.0,12.0,74,0.00,,,0.00,,2013-07-11 18:45:00,
2013-07-11 13:53:00,84.0,73.0,29.85,East,93,3.0,12.0,70,0.00,,,0.00,,2013-07-11 18:53:00,
2013-07-11 14:04:00,84.0,73.0,29.85,East,93,3.0,12.0,70,0.00,,,0.00,,2013-07-11 19:04:00,
2013-07-11 14:13:00,84.0,70.0,29.85,ENE,58,5.0,14.0,64,0.00,,,0.00,,2013-07-11 19:13:00,
2013-07-11 14:23:00,84.0,71.0,29.85,NNE,24,5.0,14.0,66,0.00,,,0.00,,2013-07-11 19:23:00,
2013-07-11 14:38:00,84.0,71.0,29.85,NNE,24,5.0,14.0,66,0.00,,,0.00,,2013-07-11 19:38:00,
2013-07-11 14:44:00,84.0,70.0,29.85,ENE,69,7.0,14.0,64,0.00,,,0.00,,2013-07-11 19:44:00,
2013-07-11 14:55:00,83.0,70.0,29.84,North,359,5.0,14.0,64,0.00,,,0.00,,2013-07-11 19:55:00,
2013-07-11 15:05:00,83.0,70.0,29.84,North,359,5.0,14.0,64,0.00,,,0.00,,2013-07-11 20:05:00,
2013-07-11 15:13:00,83.0,73.0,29.85,ENE,72,5.0,14.0,71,0.00,,,0.00,,2013-07-11 20:13:00,
2013-07-11 15:25:00,83.0,70.0,29.85,NE,42,8.0,14.0,66,0.00,,,0.00,,2013-07-11 20:25:00,
2013-07-11 15:37:00,83.0,70.0,29.85,NE,42,8.0,14.0,66,0.00,,,0.00,,2013-07-11 20:37:00,
2013-07-11 15:46:00,82.0,68.0,29.85,East,88,6.0,14.0,63,0.00,,,0.00,,2013-07-11 20:46:00,
2013-07-11 15:53:00,83.0,68.0,29.85,East,95,6.0,14.0,61,0.00,,,0.00,,2013-07-11 20:53:00,
2013-07-11 16:05:00,83.0,68.0,29.85,East,95,6.0,14.0,61,0.00,,,0.00,,2013-07-11 21:05:00,
2013-07-11 16:15:00,83.0,67.0,29.85,North,349,1.0,14.0,59,0.00,,,0.00,,2013-07-11 21:15:00,
2013-07-11 16:35:00,84.0,69.0,29.85,ESE,113,8.0,14.0,60,0.00,,,0.00,,2013-07-11 21:35:00,
2013-07-11 16:45:00,83.0,69.0,29.85,East,92,5.0,14.0,63,0.00,,,0.00,,2013-07-11 21:45:00,
2013-07-11 16:55:00,82.0,67.0,29.85,ENE,78,2.0,14.0,61,0.00,,,0.00,,2013-07-11 21:55:00,
2013-07-11 17:05:00,82.0,67.0,29.85,ENE,78,2.0,14.0,61,0.00,,,0.00,,2013-07-11 22:05:00,
2013-07-11 17:24:00,82.0,67.0,29.85,ENE,75,5.0,13.0,61,0.00,,,0.00,,2013-07-11 22:24:00,
2013-07-11 17:34:00,82.0,67.0,29.85,ENE,75,5.0,13.0,61,0.00,,,0.00,,2013-07-11 22:34:00,
2013-07-11 17:46:00,82.0,65.0,29.85,ENE,75,7.0,13.0,56,0.00,,,0.00,,2013-07-11 22:46:00,
2013-07-11 17:54:00,81.0,64.0,29.85,East,83,1.0,13.0,56,0.00,,,0.00,,2013-07-11 22:54:00,
2013-07-11 18:13:00,81.0,66.0,29.85,ENE,76,7.0,19.0,60,0.00,,,0.00,,2013-07-11 23:13:00,
2013-07-11 18:35:00,80.0,64.0,29.85,NNW,329,7.0,12.0,58,0.00,,,0.00,,2013-07-11 23:35:00,
2013-07-11 18:46:00,79.0,62.0,29.84,NE,56,5.0,12.0,57,0.00,,,0.00,,2013-07-11 23:46:00,
2013-07-11 18:54:00,79.0,63.0,29.84,NE,48,5.0,12.0,59,0.00,,,0.00,,2013-07-11 23:54:00,
2013-07-11 19:05:00,79.0,63.0,29.84,NE,48,5.0,12.0,59,0.00,,,0.00,,2013-07-12 00:05:00,
2013-07-11 19:24:00,77.0,62.0,29.85,East,89,7.0,17.0,60,0.00,,,0.00,,2013-07-12 00:24:00,
2013-07-11 19:35:00,77.0,62.0,29.85,East,89,7.0,17.0,60,0.00,,,0.00,,2013-07-12 00:35:00,
2013-07-11 19:44:00,77.0,62.0,29.84,ENE,71,6.0,17.0,59,0.00,,,0.00,,2013-07-12 00:44:00,
2013-07-11 19:55:00,76.0,62.0,29.85,East,79,1.0,17.0,61,0.00,,,0.00,,2013-07-12 00:55:00,
2013-07-11 20:04:00,76.0,62.0,29.85,East,79,1.0,17.0,61,0.00,,,0.00,,2013-07-12 01:04:00,
2013-07-11 20:13:00,75.0,61.0,29.84,ENE,61,2.0,14.0,61,0.00,,,0.00,,2013-07-12 01:13:00,
2013-07-11 20:26:00,74.0,60.0,29.85,NE,35,1.0,11.0,61,0.00,,,0.00,,2013-07-12 01:26:00,
2013-07-11 20:36:00,74.0,60.0,29.85,NE,35,1.0,11.0,61,0.00,,,0.00,,2013-07-12 01:36:00,
2013-07-11 20:46:00,73.0,60.0,29.85,East,89,0.0,11.0,63,0.00,,,0.00,,2013-07-12 01:46:00,
2013-07-11 20:55:00,72.0,59.0,29.85,ENE,65,0.0,11.0,64,0.00,,,0.00,,2013-07-12 01:55:00,
2013-07-11 21:06:00,72.0,59.0,29.85,ENE,65,0.0,11.0,64,0.00,,,0.00,,2013-07-12 02:06:00,
2013-07-11 21:24:00,70.0,60.0,29.86,ENE,64,1.0,5.0,71,0.00,,,0.00,,2013-07-12 02:24:00,
2013-07-11 21:35:00,70.0,60.0,29.86,ENE,64,1.0,5.0,71,0.00,,,0.00,,2013-07-12 02:35:00,
2013-07-11 21:45:00,69.0,60.0,29.87,ENE,64,0.0,5.0,73,0.00,,,0.00,,2013-07-12 02:45:00,
2013-07-11 21:53:00,68.0,60.0,29.88,ENE,59,0.0,5.0,75,0.00,,,0.00,,2013-07-12 02:53:00,
2013-07-11 22:03:00,68.0,60.0,29.88,ENE,59,0.0,5.0,75,0.00,,,0.00,,2013-07-12 03:03:00,
2013-07-11 22:14:00,68.0,60.0,29.88,ENE,59,0.0,3.0,76,0.00,,,0.00,,2013-07-12 03:14:00,
2013-07-11 22:24:00,67.0,59.0,29.88,ENE,59,1.0,2.0,76,0.00,,,0.00,,2013-07-12 03:24:00,
2013-07-11 22:54:00,66.0,59.0,29.88,ENE,59,0.0,2.0,79,0.00,,,0.00,,2013-07-12 03:54:00,
2013-07-11 23:01:00,66.0,59.0,29.88,ENE,59,0.0,2.0,79,0.00,,,0.00,,2013-07-12 04:01:00,
2013-07-11 23:11:00,66.0,60.0,29.88,ENE,59,0.0,2.0,81,0.00,,,0.00,,2013-07-12 04:11:00,
2013-07-11 23:22:00,66.0,61.0,29.88,ENE,59,0.0,2.0,83,0.00,,,0.00,,2013-07-12 04:22:00,
2013-07-11 23:32:00,66.0,61.0,29.88,ENE,59,0.0,2.0,83,0.00,,,0.00,,2013-07-12 04:32:00,
2013-07-11 23:43:00,66.0,61.0,29.88,ENE,59,2.0,2.0,84,0.00,,,0.00,,2013-07-12 04:43:00,
2013-07-11 23:53:00,66.0,61.0,29.89,ENE,59,0.0,2.0,84,0.00,,,0.00,,2013-07-12 04:53:00,